sensor_id;sensor_type;location;lat;lon;timestamp;temperature;humidity
18229;DHT22;9239;50.932;3.142;2023-04-30T00:00:59;8.70;99.90
18229;DHT22;9239;50.932;3.142;2023-04-30T00:03:26;8.80;99.90
18229;DHT22;9239;50.932;3.142;2023-04-30T00:05:54;8.80;99.90
18229;DHT22;9239;50.932;3.142;2023-04-30T00:08:21;8.70;99.90
18229;DHT22;9239;50.932;3.142;2023-04-30T00:10:48;8.70;99.90
18229;DHT22;9239;50.932;3.142;2023-04-30T00:13:16;8.70;99.90
18229;DHT22;9239;50.932;3.142;2023-04-30T00:15:43;8.70;99.90
18229;DHT22;9239;50.932;3.142;2023-04-30T00:18:10;8.70;99.90
18229;DHT22;9239;50.932;3.142;2023-04-30T00:20:37;8.70;99.90
18229;DHT22;9239;50.932;3.142;2023-04-30T00:23:05;8.70;99.90
18229;DHT22;9239;50.932;3.142;2023-04-30T00:25:32;8.70;99.90
18229;DHT22;9239;50.932;3.142;2023-04-30T00:28:00;8.70;99.90
18229;DHT22;9239;50.932;3.142;2023-04-30T00:30:26;8.60;99.90
18229;DHT22;9239;50.932;3.142;2023-04-30T00:32:53;8.60;99.90
18229;DHT22;9239;50.932;3.142;2023-04-30T00:35:20;8.60;99.90
18229;DHT22;9239;50.932;3.142;2023-04-30T00:37:47;8.60;99.90
18229;DHT22;9239;50.932;3.142;2023-04-30T00:40:16;8.60;99.90
18229;DHT22;9239;50.932;3.142;2023-04-30T00:42:43;8.60;99.90
18229;DHT22;9239;50.932;3.142;2023-04-30T00:45:10;8.60;99.90
18229;DHT22;9239;50.932;3.142;2023-04-30T00:47:37;8.70;99.90
18229;DHT22;9239;50.932;3.142;2023-04-30T00:50:05;8.60;99.90
18229;DHT22;9239;50.932;3.142;2023-04-30T00:52:32;8.60;99.90
18229;DHT22;9239;50.932;3.142;2023-04-30T00:54:59;8.60;99.90
18229;DHT22;9239;50.932;3.142;2023-04-30T00:57:28;8.60;99.90
18229;DHT22;9239;50.932;3.142;2023-04-30T00:59:56;8.60;99.90
18229;DHT22;9239;50.932;3.142;2023-04-30T01:02:23;8.50;99.90
18229;DHT22;9239;50.932;3.142;2023-04-30T01:04:50;8.50;99.90
18229;DHT22;9239;50.932;3.142;2023-04-30T01:07:17;8.50;99.90
18229;DHT22;9239;50.932;3.142;2023-04-30T01:09:44;8.50;99.90
18229;DHT22;9239;50.932;3.142;2023-04-30T01:12:14;8.50;99.90
18229;DHT22;9239;50.932;3.142;2023-04-30T01:14:52;8.50;99.90
18229;DHT22;9239;50.932;3.142;2023-04-30T01:17:29;8.40;99.90
18229;DHT22;9239;50.932;3.142;2023-04-30T01:19:58;8.40;99.90
18229;DHT22;9239;50.932;3.142;2023-04-30T01:22:34;8.40;99.90
18229;DHT22;9239;50.932;3.142;2023-04-30T01:25:32;8.30;99.90
18229;DHT22;9239;50.932;3.142;2023-04-30T01:28:04;8.30;99.90
18229;DHT22;9239;50.932;3.142;2023-04-30T01:30:33;8.30;99.90
18229;DHT22;9239;50.932;3.142;2023-04-30T01:33:00;8.30;99.90
18229;DHT22;9239;50.932;3.142;2023-04-30T01:35:38;8.30;99.90
18229;DHT22;9239;50.932;3.142;2023-04-30T01:38:17;8.20;99.90
18229;DHT22;9239;50.932;3.142;2023-04-30T01:40:51;8.20;99.90
18229;DHT22;9239;50.932;3.142;2023-04-30T01:43:30;8.20;99.90
18229;DHT22;9239;50.932;3.142;2023-04-30T01:46:06;8.20;99.90
18229;DHT22;9239;50.932;3.142;2023-04-30T01:48:41;8.20;99.90
18229;DHT22;9239;50.932;3.142;2023-04-30T01:51:15;8.20;99.90
18229;DHT22;9239;50.932;3.142;2023-04-30T01:53:45;8.10;99.90
18229;DHT22;9239;50.932;3.142;2023-04-30T01:56:17;8.10;99.90
18229;DHT22;9239;50.932;3.142;2023-04-30T01:58:49;8.10;99.90
18229;DHT22;9239;50.932;3.142;2023-04-30T02:01:27;8.10;99.90
18229;DHT22;9239;50.932;3.142;2023-04-30T02:03:54;8.10;99.90
18229;DHT22;9239;50.932;3.142;2023-04-30T02:06:21;8.10;99.90
18229;DHT22;9239;50.932;3.142;2023-04-30T02:08:52;8.10;99.90
18229;DHT22;9239;50.932;3.142;2023-04-30T02:11:20;8.10;99.90
18229;DHT22;9239;50.932;3.142;2023-04-30T02:13:50;8.10;99.90
18229;DHT22;9239;50.932;3.142;2023-04-30T02:16:17;8.10;99.90
18229;DHT22;9239;50.932;3.142;2023-04-30T02:18:44;8.10;99.90
18229;DHT22;9239;50.932;3.142;2023-04-30T02:21:11;8.20;99.90
18229;DHT22;9239;50.932;3.142;2023-04-30T02:23:38;8.20;99.90
18229;DHT22;9239;50.932;3.142;2023-04-30T02:26:06;8.20;99.90
18229;DHT22;9239;50.932;3.142;2023-04-30T02:28:33;8.30;99.90
18229;DHT22;9239;50.932;3.142;2023-04-30T02:31:02;8.30;99.90
18229;DHT22;9239;50.932;3.142;2023-04-30T02:33:29;8.30;99.90
18229;DHT22;9239;50.932;3.142;2023-04-30T02:35:57;8.30;99.90
18229;DHT22;9239;50.932;3.142;2023-04-30T02:38:24;8.40;99.90
18229;DHT22;9239;50.932;3.142;2023-04-30T02:40:51;8.30;99.90
18229;DHT22;9239;50.932;3.142;2023-04-30T02:43:18;8.40;99.90
18229;DHT22;9239;50.932;3.142;2023-04-30T02:45:45;8.40;99.90
18229;DHT22;9239;50.932;3.142;2023-04-30T02:48:14;8.40;99.90
18229;DHT22;9239;50.932;3.142;2023-04-30T02:50:41;8.40;99.90
18229;DHT22;9239;50.932;3.142;2023-04-30T02:53:08;8.40;99.90
18229;DHT22;9239;50.932;3.142;2023-04-30T02:55:35;8.40;99.90
18229;DHT22;9239;50.932;3.142;2023-04-30T02:58:02;8.40;99.90
18229;DHT22;9239;50.932;3.142;2023-04-30T03:00:29;8.40;99.90
18229;DHT22;9239;50.932;3.142;2023-04-30T03:02:56;8.40;99.90
18229;DHT22;9239;50.932;3.142;2023-04-30T03:05:24;8.40;99.90
18229;DHT22;9239;50.932;3.142;2023-04-30T03:07:51;8.40;99.90
18229;DHT22;9239;50.932;3.142;2023-04-30T03:10:18;8.40;99.90
18229;DHT22;9239;50.932;3.142;2023-04-30T03:12:46;8.40;99.90
18229;DHT22;9239;50.932;3.142;2023-04-30T03:15:13;8.40;99.90
18229;DHT22;9239;50.932;3.142;2023-04-30T03:17:40;8.30;99.90
18229;DHT22;9239;50.932;3.142;2023-04-30T03:20:08;8.30;99.90
18229;DHT22;9239;50.932;3.142;2023-04-30T03:22:36;8.30;99.90
18229;DHT22;9239;50.932;3.142;2023-04-30T03:25:04;8.30;99.90
18229;DHT22;9239;50.932;3.142;2023-04-30T03:27:31;8.30;99.90
18229;DHT22;9239;50.932;3.142;2023-04-30T03:29:58;8.30;99.90
18229;DHT22;9239;50.932;3.142;2023-04-30T03:32:25;8.30;99.90
18229;DHT22;9239;50.932;3.142;2023-04-30T03:34:52;8.30;99.90
18229;DHT22;9239;50.932;3.142;2023-04-30T03:37:19;8.20;99.90
18229;DHT22;9239;50.932;3.142;2023-04-30T03:39:47;8.20;99.90
18229;DHT22;9239;50.932;3.142;2023-04-30T03:42:14;8.20;99.90
18229;DHT22;9239;50.932;3.142;2023-04-30T03:44:41;8.20;99.90
18229;DHT22;9239;50.932;3.142;2023-04-30T03:47:08;8.20;99.90
18229;DHT22;9239;50.932;3.142;2023-04-30T03:49:35;8.20;99.90
18229;DHT22;9239;50.932;3.142;2023-04-30T03:52:02;8.20;99.90
18229;DHT22;9239;50.932;3.142;2023-04-30T03:54:30;8.20;99.90
18229;DHT22;9239;50.932;3.142;2023-04-30T03:56:59;8.20;99.90
18229;DHT22;9239;50.932;3.142;2023-04-30T03:59:28;8.20;99.90
18229;DHT22;9239;50.932;3.142;2023-04-30T04:01:55;8.20;99.90
18229;DHT22;9239;50.932;3.142;2023-04-30T04:04:22;8.20;99.90
18229;DHT22;9239;50.932;3.142;2023-04-30T04:06:49;8.20;99.90
18229;DHT22;9239;50.932;3.142;2023-04-30T04:09:16;8.20;99.90
18229;DHT22;9239;50.932;3.142;2023-04-30T04:11:42;8.20;99.90
18229;DHT22;9239;50.932;3.142;2023-04-30T04:14:11;8.20;99.90
18229;DHT22;9239;50.932;3.142;2023-04-30T04:16:38;8.20;99.90
18229;DHT22;9239;50.932;3.142;2023-04-30T04:19:05;8.20;99.90
18229;DHT22;9239;50.932;3.142;2023-04-30T04:21:32;8.20;99.90
18229;DHT22;9239;50.932;3.142;2023-04-30T04:23:59;8.20;99.90
18229;DHT22;9239;50.932;3.142;2023-04-30T04:26:29;8.20;99.90
18229;DHT22;9239;50.932;3.142;2023-04-30T04:28:56;8.20;99.90
18229;DHT22;9239;50.932;3.142;2023-04-30T04:31:25;8.20;99.90
18229;DHT22;9239;50.932;3.142;2023-04-30T04:33:52;8.20;99.90
18229;DHT22;9239;50.932;3.142;2023-04-30T04:36:23;8.20;99.90
18229;DHT22;9239;50.932;3.142;2023-04-30T04:38:52;8.20;99.90
18229;DHT22;9239;50.932;3.142;2023-04-30T04:41:19;8.20;99.90
18229;DHT22;9239;50.932;3.142;2023-04-30T04:43:47;8.20;99.90
18229;DHT22;9239;50.932;3.142;2023-04-30T04:46:14;8.20;99.90
18229;DHT22;9239;50.932;3.142;2023-04-30T04:48:43;8.20;99.90
18229;DHT22;9239;50.932;3.142;2023-04-30T04:51:10;8.20;99.90
18229;DHT22;9239;50.932;3.142;2023-04-30T04:53:37;8.20;99.90
18229;DHT22;9239;50.932;3.142;2023-04-30T04:56:05;8.20;99.90
18229;DHT22;9239;50.932;3.142;2023-04-30T04:58:32;8.30;99.90
18229;DHT22;9239;50.932;3.142;2023-04-30T05:01:00;8.30;99.90
18229;DHT22;9239;50.932;3.142;2023-04-30T05:03:27;8.30;99.90
18229;DHT22;9239;50.932;3.142;2023-04-30T05:05:56;8.30;99.90
18229;DHT22;9239;50.932;3.142;2023-04-30T05:08:23;8.40;99.90
18229;DHT22;9239;50.932;3.142;2023-04-30T05:10:50;8.40;99.90
18229;DHT22;9239;50.932;3.142;2023-04-30T05:13:17;8.40;99.90
18229;DHT22;9239;50.932;3.142;2023-04-30T05:15:44;8.50;99.90
18229;DHT22;9239;50.932;3.142;2023-04-30T05:18:11;8.50;99.90
18229;DHT22;9239;50.932;3.142;2023-04-30T05:20:38;8.60;99.90
18229;DHT22;9239;50.932;3.142;2023-04-30T05:23:06;8.70;99.90
18229;DHT22;9239;50.932;3.142;2023-04-30T05:25:34;8.90;99.90
18229;DHT22;9239;50.932;3.142;2023-04-30T05:28:01;9.30;99.90
18229;DHT22;9239;50.932;3.142;2023-04-30T05:30:29;9.80;99.90
18229;DHT22;9239;50.932;3.142;2023-04-30T05:32:57;10.40;99.90
18229;DHT22;9239;50.932;3.142;2023-04-30T05:35:24;11.50;99.90
18229;DHT22;9239;50.932;3.142;2023-04-30T05:37:51;12.70;99.90
18229;DHT22;9239;50.932;3.142;2023-04-30T05:40:19;13.80;99.90
18229;DHT22;9239;50.932;3.142;2023-04-30T05:42:46;15.00;99.90
18229;DHT22;9239;50.932;3.142;2023-04-30T05:45:13;15.70;99.90
18229;DHT22;9239;50.932;3.142;2023-04-30T05:47:41;16.30;99.90
18229;DHT22;9239;50.932;3.142;2023-04-30T05:50:09;16.90;99.90
18229;DHT22;9239;50.932;3.142;2023-04-30T05:52:36;17.40;99.90
18229;DHT22;9239;50.932;3.142;2023-04-30T05:55:03;17.20;99.90
18229;DHT22;9239;50.932;3.142;2023-04-30T05:57:32;17.30;99.90
18229;DHT22;9239;50.932;3.142;2023-04-30T05:59:59;16.80;99.90
18229;DHT22;9239;50.932;3.142;2023-04-30T06:02:26;16.50;99.90
18229;DHT22;9239;50.932;3.142;2023-04-30T06:04:53;16.20;99.90
18229;DHT22;9239;50.932;3.142;2023-04-30T06:07:20;16.00;99.90
18229;DHT22;9239;50.932;3.142;2023-04-30T06:09:47;16.00;99.90
18229;DHT22;9239;50.932;3.142;2023-04-30T06:12:14;15.80;99.90
18229;DHT22;9239;50.932;3.142;2023-04-30T06:14:43;15.60;99.90
18229;DHT22;9239;50.932;3.142;2023-04-30T06:17:10;14.90;99.90
18229;DHT22;9239;50.932;3.142;2023-04-30T06:19:37;14.40;99.90
18229;DHT22;9239;50.932;3.142;2023-04-30T06:22:04;14.20;99.90
18229;DHT22;9239;50.932;3.142;2023-04-30T06:24:31;14.50;99.90
18229;DHT22;9239;50.932;3.142;2023-04-30T06:26:58;14.70;99.90
18229;DHT22;9239;50.932;3.142;2023-04-30T06:29:26;14.70;99.90
18229;DHT22;9239;50.932;3.142;2023-04-30T06:31:54;14.60;99.90
18229;DHT22;9239;50.932;3.142;2023-04-30T06:34:21;14.40;99.90
18229;DHT22;9239;50.932;3.142;2023-04-30T06:36:48;14.20;99.90
18229;DHT22;9239;50.932;3.142;2023-04-30T06:39:15;13.80;99.90
18229;DHT22;9239;50.932;3.142;2023-04-30T06:41:42;13.80;99.90
18229;DHT22;9239;50.932;3.142;2023-04-30T06:44:11;13.70;99.90
18229;DHT22;9239;50.932;3.142;2023-04-30T06:46:39;13.80;99.90
18229;DHT22;9239;50.932;3.142;2023-04-30T06:49:08;14.40;99.90
18229;DHT22;9239;50.932;3.142;2023-04-30T06:51:35;15.30;99.90
18229;DHT22;9239;50.932;3.142;2023-04-30T06:54:02;15.40;99.90
18229;DHT22;9239;50.932;3.142;2023-04-30T06:56:29;15.00;99.90
18229;DHT22;9239;50.932;3.142;2023-04-30T06:58:56;14.40;99.90
18229;DHT22;9239;50.932;3.142;2023-04-30T07:01:23;13.90;99.90
18229;DHT22;9239;50.932;3.142;2023-04-30T07:03:50;13.40;99.90
18229;DHT22;9239;50.932;3.142;2023-04-30T07:06:20;13.00;99.90
18229;DHT22;9239;50.932;3.142;2023-04-30T07:08:47;13.00;99.90
18229;DHT22;9239;50.932;3.142;2023-04-30T07:11:14;12.80;99.90
18229;DHT22;9239;50.932;3.142;2023-04-30T07:13:41;12.60;99.90
18229;DHT22;9239;50.932;3.142;2023-04-30T07:16:08;12.50;99.90
18229;DHT22;9239;50.932;3.142;2023-04-30T07:18:35;12.40;99.90
18229;DHT22;9239;50.932;3.142;2023-04-30T07:21:04;12.30;99.90
18229;DHT22;9239;50.932;3.142;2023-04-30T07:23:32;12.30;99.90
18229;DHT22;9239;50.932;3.142;2023-04-30T07:25:59;12.40;99.90
18229;DHT22;9239;50.932;3.142;2023-04-30T07:28:26;12.50;99.90
18229;DHT22;9239;50.932;3.142;2023-04-30T07:30:53;12.40;99.90
18229;DHT22;9239;50.932;3.142;2023-04-30T07:33:20;12.40;99.90
18229;DHT22;9239;50.932;3.142;2023-04-30T07:35:47;12.40;99.90
18229;DHT22;9239;50.932;3.142;2023-04-30T07:38:15;12.50;99.90
18229;DHT22;9239;50.932;3.142;2023-04-30T07:40:45;12.50;99.90
18229;DHT22;9239;50.932;3.142;2023-04-30T07:43:12;12.60;99.90
18229;DHT22;9239;50.932;3.142;2023-04-30T07:45:38;12.60;99.90
18229;DHT22;9239;50.932;3.142;2023-04-30T07:48:07;12.70;99.90
18229;DHT22;9239;50.932;3.142;2023-04-30T07:50:33;12.70;99.90
18229;DHT22;9239;50.932;3.142;2023-04-30T07:53:02;12.80;99.90
18229;DHT22;9239;50.932;3.142;2023-04-30T07:55:31;12.90;99.90
18229;DHT22;9239;50.932;3.142;2023-04-30T07:58:00;13.10;99.90
18229;DHT22;9239;50.932;3.142;2023-04-30T08:00:28;13.10;99.90
18229;DHT22;9239;50.932;3.142;2023-04-30T08:02:55;13.00;99.90
18229;DHT22;9239;50.932;3.142;2023-04-30T08:05:22;13.00;99.90
18229;DHT22;9239;50.932;3.142;2023-04-30T08:07:49;13.10;99.90
18229;DHT22;9239;50.932;3.142;2023-04-30T08:10:16;13.20;99.90
18229;DHT22;9239;50.932;3.142;2023-04-30T08:12:43;13.30;99.90
18229;DHT22;9239;50.932;3.142;2023-04-30T08:15:12;13.50;99.90
18229;DHT22;9239;50.932;3.142;2023-04-30T08:17:39;13.60;99.90
18229;DHT22;9239;50.932;3.142;2023-04-30T08:20:07;13.70;99.90
18229;DHT22;9239;50.932;3.142;2023-04-30T08:22:34;13.80;99.90
18229;DHT22;9239;50.932;3.142;2023-04-30T08:25:01;13.80;99.90
18229;DHT22;9239;50.932;3.142;2023-04-30T08:27:30;13.90;99.90
18229;DHT22;9239;50.932;3.142;2023-04-30T08:29:58;14.00;99.90
18229;DHT22;9239;50.932;3.142;2023-04-30T08:32:26;14.10;99.90
18229;DHT22;9239;50.932;3.142;2023-04-30T08:34:53;14.30;99.90
18229;DHT22;9239;50.932;3.142;2023-04-30T08:37:20;14.40;99.90
18229;DHT22;9239;50.932;3.142;2023-04-30T08:39:47;14.40;99.90
18229;DHT22;9239;50.932;3.142;2023-04-30T08:42:16;14.40;99.90
18229;DHT22;9239;50.932;3.142;2023-04-30T08:44:44;14.40;99.90
18229;DHT22;9239;50.932;3.142;2023-04-30T08:47:12;14.70;99.90
18229;DHT22;9239;50.932;3.142;2023-04-30T08:49:42;14.80;99.90
18229;DHT22;9239;50.932;3.142;2023-04-30T08:52:09;14.80;99.90
18229;DHT22;9239;50.932;3.142;2023-04-30T08:54:36;14.80;99.90
18229;DHT22;9239;50.932;3.142;2023-04-30T08:57:04;15.00;99.90
18229;DHT22;9239;50.932;3.142;2023-04-30T08:59:32;15.10;99.90
18229;DHT22;9239;50.932;3.142;2023-04-30T09:02:00;15.20;99.90
18229;DHT22;9239;50.932;3.142;2023-04-30T09:04:27;15.40;99.90
18229;DHT22;9239;50.932;3.142;2023-04-30T09:06:56;15.50;99.90
18229;DHT22;9239;50.932;3.142;2023-04-30T09:09:28;15.50;99.90
18229;DHT22;9239;50.932;3.142;2023-04-30T09:12:10;15.60;99.90
18229;DHT22;9239;50.932;3.142;2023-04-30T09:14:39;15.70;99.90
18229;DHT22;9239;50.932;3.142;2023-04-30T09:17:07;15.70;99.90
18229;DHT22;9239;50.932;3.142;2023-04-30T09:19:34;15.80;99.90
18229;DHT22;9239;50.932;3.142;2023-04-30T09:22:22;15.90;99.90
18229;DHT22;9239;50.932;3.142;2023-04-30T09:24:50;15.80;99.90
18229;DHT22;9239;50.932;3.142;2023-04-30T09:27:19;16.00;99.90
18229;DHT22;9239;50.932;3.142;2023-04-30T09:29:46;16.20;99.90
18229;DHT22;9239;50.932;3.142;2023-04-30T09:32:14;16.20;99.90
18229;DHT22;9239;50.932;3.142;2023-04-30T09:34:41;16.10;99.90
18229;DHT22;9239;50.932;3.142;2023-04-30T09:37:08;16.10;99.90
18229;DHT22;9239;50.932;3.142;2023-04-30T09:39:47;16.20;99.90
18229;DHT22;9239;50.932;3.142;2023-04-30T09:42:15;16.40;99.90
18229;DHT22;9239;50.932;3.142;2023-04-30T09:44:43;16.30;99.90
18229;DHT22;9239;50.932;3.142;2023-04-30T09:47:11;16.30;99.90
18229;DHT22;9239;50.932;3.142;2023-04-30T09:49:41;16.40;99.90
18229;DHT22;9239;50.932;3.142;2023-04-30T09:52:09;16.50;99.90
18229;DHT22;9239;50.932;3.142;2023-04-30T09:54:37;16.60;99.90
18229;DHT22;9239;50.932;3.142;2023-04-30T09:57:10;16.70;99.90
18229;DHT22;9239;50.932;3.142;2023-04-30T09:59:37;16.70;99.90
18229;DHT22;9239;50.932;3.142;2023-04-30T10:02:06;16.70;99.90
18229;DHT22;9239;50.932;3.142;2023-04-30T10:04:35;16.90;99.90
18229;DHT22;9239;50.932;3.142;2023-04-30T10:07:05;16.90;99.90
18229;DHT22;9239;50.932;3.142;2023-04-30T10:09:38;16.90;99.90
18229;DHT22;9239;50.932;3.142;2023-04-30T10:12:17;17.00;99.90
18229;DHT22;9239;50.932;3.142;2023-04-30T10:14:50;16.90;99.90
18229;DHT22;9239;50.932;3.142;2023-04-30T10:17:19;17.10;99.90
18229;DHT22;9239;50.932;3.142;2023-04-30T10:19:51;17.10;99.90
18229;DHT22;9239;50.932;3.142;2023-04-30T10:22:21;17.10;99.90
18229;DHT22;9239;50.932;3.142;2023-04-30T10:24:48;17.10;99.90
18229;DHT22;9239;50.932;3.142;2023-04-30T10:27:17;17.20;99.90
18229;DHT22;9239;50.932;3.142;2023-04-30T10:29:45;17.20;99.90
18229;DHT22;9239;50.932;3.142;2023-04-30T10:32:13;17.20;99.90
18229;DHT22;9239;50.932;3.142;2023-04-30T10:34:47;17.30;99.90
18229;DHT22;9239;50.932;3.142;2023-04-30T10:37:20;17.30;99.90
18229;DHT22;9239;50.932;3.142;2023-04-30T10:39:48;17.50;99.90
18229;DHT22;9239;50.932;3.142;2023-04-30T10:42:17;17.70;99.90
18229;DHT22;9239;50.932;3.142;2023-04-30T10:44:44;17.80;99.90
18229;DHT22;9239;50.932;3.142;2023-04-30T10:47:13;17.60;99.90
18229;DHT22;9239;50.932;3.142;2023-04-30T10:49:44;17.60;99.90
18229;DHT22;9239;50.932;3.142;2023-04-30T10:52:12;17.50;99.90
18229;DHT22;9239;50.932;3.142;2023-04-30T10:54:48;17.60;99.90
18229;DHT22;9239;50.932;3.142;2023-04-30T10:57:17;17.80;99.90
18229;DHT22;9239;50.932;3.142;2023-04-30T10:59:53;17.70;99.90
18229;DHT22;9239;50.932;3.142;2023-04-30T11:02:39;17.70;99.90
18229;DHT22;9239;50.932;3.142;2023-04-30T11:05:09;17.70;99.90
18229;DHT22;9239;50.932;3.142;2023-04-30T11:07:44;17.70;99.90
18229;DHT22;9239;50.932;3.142;2023-04-30T11:10:14;17.70;99.90
18229;DHT22;9239;50.932;3.142;2023-04-30T11:12:47;17.50;99.90
18229;DHT22;9239;50.932;3.142;2023-04-30T11:15:16;17.60;99.90
18229;DHT22;9239;50.932;3.142;2023-04-30T11:17:45;17.50;99.90
18229;DHT22;9239;50.932;3.142;2023-04-30T11:20:12;17.60;99.90
18229;DHT22;9239;50.932;3.142;2023-04-30T11:22:39;17.70;99.90
18229;DHT22;9239;50.932;3.142;2023-04-30T11:25:08;17.70;99.90
18229;DHT22;9239;50.932;3.142;2023-04-30T11:27:36;17.90;99.90
18229;DHT22;9239;50.932;3.142;2023-04-30T11:30:11;18.10;99.90
18229;DHT22;9239;50.932;3.142;2023-04-30T11:32:40;18.20;99.90
18229;DHT22;9239;50.932;3.142;2023-04-30T11:35:08;18.20;99.90
18229;DHT22;9239;50.932;3.142;2023-04-30T11:37:36;18.40;99.90
18229;DHT22;9239;50.932;3.142;2023-04-30T11:40:05;18.50;99.90
18229;DHT22;9239;50.932;3.142;2023-04-30T11:42:33;18.40;99.90
18229;DHT22;9239;50.932;3.142;2023-04-30T11:45:05;18.30;99.90
18229;DHT22;9239;50.932;3.142;2023-04-30T11:47:44;18.30;99.90
18229;DHT22;9239;50.932;3.142;2023-04-30T11:50:13;18.40;99.90
18229;DHT22;9239;50.932;3.142;2023-04-30T11:52:41;18.60;99.90
18229;DHT22;9239;50.932;3.142;2023-04-30T11:55:12;18.90;99.90
18229;DHT22;9239;50.932;3.142;2023-04-30T11:57:41;19.00;99.90
18229;DHT22;9239;50.932;3.142;2023-04-30T12:00:13;19.20;99.90
18229;DHT22;9239;50.932;3.142;2023-04-30T12:02:43;19.20;99.90
18229;DHT22;9239;50.932;3.142;2023-04-30T12:05:14;19.30;99.90
18229;DHT22;9239;50.932;3.142;2023-04-30T12:07:47;19.30;99.90
18229;DHT22;9239;50.932;3.142;2023-04-30T12:10:14;19.20;99.90
18229;DHT22;9239;50.932;3.142;2023-04-30T12:12:42;19.00;99.90
18229;DHT22;9239;50.932;3.142;2023-04-30T12:15:14;18.80;99.90
18229;DHT22;9239;50.932;3.142;2023-04-30T12:17:44;18.70;99.90
18229;DHT22;9239;50.932;3.142;2023-04-30T12:20:12;18.70;99.90
18229;DHT22;9239;50.932;3.142;2023-04-30T12:22:40;18.70;99.90
18229;DHT22;9239;50.932;3.142;2023-04-30T12:25:11;18.80;99.90
18229;DHT22;9239;50.932;3.142;2023-04-30T12:27:39;18.90;99.90
18229;DHT22;9239;50.932;3.142;2023-04-30T12:30:08;19.00;99.90
18229;DHT22;9239;50.932;3.142;2023-04-30T12:32:39;19.10;99.90
18229;DHT22;9239;50.932;3.142;2023-04-30T12:35:12;19.20;99.90
18229;DHT22;9239;50.932;3.142;2023-04-30T12:37:41;19.40;99.90
18229;DHT22;9239;50.932;3.142;2023-04-30T12:40:09;19.50;99.90
18229;DHT22;9239;50.932;3.142;2023-04-30T12:42:37;19.50;99.90
18229;DHT22;9239;50.932;3.142;2023-04-30T12:45:04;19.60;99.90
18229;DHT22;9239;50.932;3.142;2023-04-30T12:47:32;19.40;99.90
18229;DHT22;9239;50.932;3.142;2023-04-30T12:50:05;19.10;99.90
18229;DHT22;9239;50.932;3.142;2023-04-30T12:52:34;18.90;99.90
18229;DHT22;9239;50.932;3.142;2023-04-30T12:55:14;19.00;99.90
18229;DHT22;9239;50.932;3.142;2023-04-30T12:57:41;18.80;99.90
18229;DHT22;9239;50.932;3.142;2023-04-30T13:00:09;18.90;99.90
18229;DHT22;9239;50.932;3.142;2023-04-30T13:02:36;19.00;99.90
18229;DHT22;9239;50.932;3.142;2023-04-30T13:05:05;19.30;99.90
18229;DHT22;9239;50.932;3.142;2023-04-30T13:07:37;19.40;99.90
18229;DHT22;9239;50.932;3.142;2023-04-30T13:10:05;19.60;99.90
18229;DHT22;9239;50.932;3.142;2023-04-30T13:12:33;19.70;99.90
18229;DHT22;9239;50.932;3.142;2023-04-30T13:14:59;19.50;99.90
18229;DHT22;9239;50.932;3.142;2023-04-30T13:17:28;19.30;99.90
18229;DHT22;9239;50.932;3.142;2023-04-30T13:19:55;19.20;99.90
18229;DHT22;9239;50.932;3.142;2023-04-30T13:22:22;19.30;99.90
18229;DHT22;9239;50.932;3.142;2023-04-30T13:24:55;19.30;99.90
18229;DHT22;9239;50.932;3.142;2023-04-30T13:27:22;19.40;99.90
18229;DHT22;9239;50.932;3.142;2023-04-30T13:29:49;19.50;99.90
18229;DHT22;9239;50.932;3.142;2023-04-30T13:32:16;19.50;99.90
18229;DHT22;9239;50.932;3.142;2023-04-30T13:34:43;19.40;99.90
18229;DHT22;9239;50.932;3.142;2023-04-30T13:37:10;19.50;99.90
18229;DHT22;9239;50.932;3.142;2023-04-30T13:39:37;19.60;99.90
18229;DHT22;9239;50.932;3.142;2023-04-30T13:42:05;19.60;99.90
18229;DHT22;9239;50.932;3.142;2023-04-30T13:44:32;19.50;99.90
18229;DHT22;9239;50.932;3.142;2023-04-30T13:47:00;19.50;99.90
18229;DHT22;9239;50.932;3.142;2023-04-30T13:49:27;19.40;99.90
18229;DHT22;9239;50.932;3.142;2023-04-30T13:51:55;19.30;99.90
18229;DHT22;9239;50.932;3.142;2023-04-30T13:54:22;19.20;99.90
18229;DHT22;9239;50.932;3.142;2023-04-30T13:56:49;19.30;99.90
18229;DHT22;9239;50.932;3.142;2023-04-30T13:59:17;19.20;99.90
18229;DHT22;9239;50.932;3.142;2023-04-30T14:01:44;19.30;99.90
18229;DHT22;9239;50.932;3.142;2023-04-30T14:04:11;19.40;99.90
18229;DHT22;9239;50.932;3.142;2023-04-30T14:06:39;19.40;99.90
18229;DHT22;9239;50.932;3.142;2023-04-30T14:09:06;19.40;99.90
18229;DHT22;9239;50.932;3.142;2023-04-30T14:11:33;19.50;99.90
18229;DHT22;9239;50.932;3.142;2023-04-30T14:14:00;19.60;99.90
18229;DHT22;9239;50.932;3.142;2023-04-30T14:16:29;19.60;99.90
18229;DHT22;9239;50.932;3.142;2023-04-30T14:18:56;19.60;99.90
18229;DHT22;9239;50.932;3.142;2023-04-30T14:21:23;19.70;99.90
18229;DHT22;9239;50.932;3.142;2023-04-30T14:23:50;19.60;99.90
18229;DHT22;9239;50.932;3.142;2023-04-30T14:26:17;19.30;99.90
18229;DHT22;9239;50.932;3.142;2023-04-30T14:28:44;19.40;99.90
18229;DHT22;9239;50.932;3.142;2023-04-30T14:31:11;19.40;99.90
18229;DHT22;9239;50.932;3.142;2023-04-30T14:33:39;19.50;99.90
18229;DHT22;9239;50.932;3.142;2023-04-30T14:36:07;19.50;99.90
18229;DHT22;9239;50.932;3.142;2023-04-30T14:38:34;19.60;99.90
18229;DHT22;9239;50.932;3.142;2023-04-30T14:41:01;19.70;99.90
18229;DHT22;9239;50.932;3.142;2023-04-30T14:43:28;19.70;99.90
18229;DHT22;9239;50.932;3.142;2023-04-30T14:45:55;19.80;99.90
18229;DHT22;9239;50.932;3.142;2023-04-30T14:48:22;19.90;99.90
18229;DHT22;9239;50.932;3.142;2023-04-30T14:50:50;19.90;99.90
18229;DHT22;9239;50.932;3.142;2023-04-30T14:53:17;19.80;99.90
18229;DHT22;9239;50.932;3.142;2023-04-30T14:55:44;19.80;99.90
18229;DHT22;9239;50.932;3.142;2023-04-30T14:58:11;19.70;99.90
18229;DHT22;9239;50.932;3.142;2023-04-30T15:00:38;19.50;99.90
18229;DHT22;9239;50.932;3.142;2023-04-30T15:03:05;19.50;99.90
18229;DHT22;9239;50.932;3.142;2023-04-30T15:05:32;19.40;99.90
18229;DHT22;9239;50.932;3.142;2023-04-30T15:08:00;19.50;99.90
18229;DHT22;9239;50.932;3.142;2023-04-30T15:10:27;19.40;99.90
18229;DHT22;9239;50.932;3.142;2023-04-30T15:12:54;19.30;99.90
18229;DHT22;9239;50.932;3.142;2023-04-30T15:15:21;19.30;99.90
18229;DHT22;9239;50.932;3.142;2023-04-30T15:17:53;19.30;99.90
18229;DHT22;9239;50.932;3.142;2023-04-30T15:20:20;19.30;99.90
18229;DHT22;9239;50.932;3.142;2023-04-30T15:22:48;19.20;99.90
18229;DHT22;9239;50.932;3.142;2023-04-30T15:25:17;19.20;99.90
18229;DHT22;9239;50.932;3.142;2023-04-30T15:27:44;19.30;99.90
18229;DHT22;9239;50.932;3.142;2023-04-30T15:30:11;19.30;99.90
18229;DHT22;9239;50.932;3.142;2023-04-30T15:32:38;19.40;99.90
18229;DHT22;9239;50.932;3.142;2023-04-30T15:35:06;19.40;99.90
18229;DHT22;9239;50.932;3.142;2023-04-30T15:37:33;19.50;99.90
18229;DHT22;9239;50.932;3.142;2023-04-30T15:40:00;19.50;99.90
18229;DHT22;9239;50.932;3.142;2023-04-30T15:42:28;19.40;99.90
18229;DHT22;9239;50.932;3.142;2023-04-30T15:44:55;19.40;99.90
18229;DHT22;9239;50.932;3.142;2023-04-30T15:47:23;19.50;99.90
18229;DHT22;9239;50.932;3.142;2023-04-30T15:49:50;19.40;99.90
18229;DHT22;9239;50.932;3.142;2023-04-30T15:52:17;19.50;99.90
18229;DHT22;9239;50.932;3.142;2023-04-30T15:54:45;19.50;99.90
18229;DHT22;9239;50.932;3.142;2023-04-30T15:57:12;19.40;99.90
18229;DHT22;9239;50.932;3.142;2023-04-30T15:59:40;19.20;99.90